createdAt,value
2022-10-19T00:00:32.828Z,101398.63
2022-10-19T00:02:59.467Z,101394.72
2022-10-19T00:05:26.389Z,101400.72
2022-10-19T00:07:52.826Z,101398.09
2022-10-19T00:10:19.265Z,101392.84
2022-10-19T00:12:45.683Z,101390.38
2022-10-19T00:15:12.948Z,101393.25
2022-10-19T00:17:39.796Z,101403.59
2022-10-19T00:20:06.683Z,101398.44
2022-10-19T00:22:53.291Z,101394.38
2022-10-19T00:25:39.751Z,101397.75
2022-10-19T00:28:26.951Z,101393.66
2022-10-19T00:31:17.376Z,101386.59
2022-10-19T00:34:04.059Z,101387.63
2022-10-19T00:36:50.454Z,101384.25
2022-10-19T00:39:19.282Z,101386.91
2022-10-19T00:41:46.989Z,101386.75
2022-10-19T00:44:13.779Z,101382.72
2022-10-19T00:46:43.695Z,101388.63
2022-10-19T00:49:20.008Z,101385.91
2022-10-19T00:51:56.290Z,101384.13
2022-10-19T00:54:23.979Z,101378.09
2022-10-19T00:56:53.726Z,101373.66
2022-10-19T00:59:22.687Z,101371.38
2022-10-19T01:01:50.041Z,101372.16
2022-10-19T01:04:16.771Z,101375.66
2022-10-19T01:06:43.377Z,101366.88
2022-10-19T01:09:10.377Z,101368.44
2022-10-19T01:11:55.884Z,101360.53
2022-10-19T01:14:28.312Z,101359.97
2022-10-19T01:17:22.315Z,101357.44
2022-10-19T01:20:26.484Z,101358.47
2022-10-19T01:23:16.841Z,101354.88
2022-10-19T01:26:23.565Z,101356.97
2022-10-19T01:29:15.293Z,101364.06
2022-10-19T01:32:11.612Z,101356.59
2022-10-19T01:34:48.090Z,101353.06
2022-10-19T01:37:31.445Z,101353.13
2022-10-19T01:40:07.872Z,101346.16
2022-10-19T01:42:51.523Z,101351.59
2022-10-19T01:45:23.028Z,101346.31
2022-10-19T01:48:05.055Z,101347.13
2022-10-19T01:50:38.290Z,101339.97
2022-10-19T01:53:08.094Z,101344.34
2022-10-19T01:55:37.526Z,101332.91
2022-10-19T01:58:09.690Z,101328.50
2022-10-19T02:00:40.904Z,101332.03
2022-10-19T02:03:10.277Z,101323.25
2022-10-19T02:05:38.859Z,101330.28
2022-10-19T02:08:13.751Z,101324.75
2022-10-19T02:10:43.247Z,101318.81
2022-10-19T02:13:11.155Z,101318.88
2022-10-19T02:15:45.972Z,101318.88
2022-10-19T02:18:15.540Z,101319.63
2022-10-19T02:20:41.922Z,101313.00
2022-10-19T02:23:08.983Z,101313.00
2022-10-19T02:25:37.031Z,101316.50
2022-10-19T02:28:05.368Z,101316.41
2022-10-19T02:30:32.331Z,101314.75
2022-10-19T02:32:59.595Z,101318.22
2022-10-19T02:35:26.283Z,101319.94
2022-10-19T02:37:53.071Z,101320.91
2022-10-19T02:40:22.704Z,101319.94
2022-10-19T02:42:57.255Z,101322.81
2022-10-19T02:45:38.186Z,101327.09
2022-10-19T02:48:13.777Z,101323.88
2022-10-19T02:50:44.974Z,101331.22
2022-10-19T02:53:11.447Z,101326.94
2022-10-19T02:55:38.567Z,101336.47
2022-10-19T02:58:05.220Z,101320.91
2022-10-19T03:00:31.595Z,101314.81
2022-10-19T03:02:58.398Z,101318.50
2022-10-19T03:05:24.851Z,101323.53
2022-10-19T03:07:52.434Z,101323.97
2022-10-19T03:10:18.823Z,101324.72
2022-10-19T03:12:45.887Z,101306.03
2022-10-19T03:15:16.743Z,101313.91
2022-10-19T03:17:43.984Z,101315.50
2022-10-19T03:20:11.667Z,101317.22
2022-10-19T03:22:38.865Z,101307.63
2022-10-19T03:25:06.262Z,101303.19
2022-10-19T03:27:32.979Z,101311.06
2022-10-19T03:29:59.832Z,101299.81
2022-10-19T03:32:26.497Z,101300.63
2022-10-19T03:34:52.900Z,101306.88
2022-10-19T03:37:19.307Z,101301.66
2022-10-19T03:39:45.997Z,101295.66
2022-10-19T03:42:12.371Z,101302.00
2022-10-19T03:44:39.156Z,101309.66
2022-10-19T03:47:05.514Z,101305.63
2022-10-19T03:49:34.602Z,101302.00
2022-10-19T03:52:03.580Z,101304.97
2022-10-19T03:54:29.959Z,101303.91
2022-10-19T03:56:56.542Z,101296.84
2022-10-19T03:59:24.520Z,101297.06
2022-10-19T04:01:50.982Z,101299.69
2022-10-19T04:04:19.879Z,101297.00
2022-10-19T04:06:48.219Z,101296.16
2022-10-19T04:09:18.955Z,101295.56
2022-10-19T04:11:45.988Z,101300.13
2022-10-19T04:14:26.865Z,101294.03
2022-10-19T04:17:03.363Z,101294.88
2022-10-19T04:19:30.535Z,101299.38
2022-10-19T04:21:57.689Z,101296.75
2022-10-19T04:24:24.147Z,101295.75
2022-10-19T04:26:53.761Z,101299.31
2022-10-19T04:29:26.288Z,101299.50
2022-10-19T04:31:56.186Z,101302.09
2022-10-19T04:34:22.670Z,101300.72
2022-10-19T04:36:49.618Z,101312.47
2022-10-19T04:39:16.088Z,101307.47
2022-10-19T04:41:43.048Z,101311.66
2022-10-19T04:44:09.699Z,101309.13
2022-10-19T04:46:37.278Z,101313.38
2022-10-19T04:49:05.514Z,101309.09
2022-10-19T04:51:32.344Z,101313.38
2022-10-19T04:53:59.767Z,101309.28
2022-10-19T04:56:29.061Z,101308.44
2022-10-19T04:58:57.802Z,101303.28
2022-10-19T05:01:26.501Z,101311.19
2022-10-19T05:06:28.132Z,101298.59
2022-10-19T05:08:54.920Z,101291.81
2022-10-19T05:11:21.687Z,101291.81
2022-10-19T05:13:49.436Z,101288.44
2022-10-19T05:16:19.112Z,101281.78
2022-10-19T05:18:59.475Z,101276.53
2022-10-19T05:21:28.455Z,101272.75
2022-10-19T05:23:56.462Z,101270.66
2022-10-19T05:26:25.639Z,101261.81
2022-10-19T05:28:59.434Z,101271.31
2022-10-19T05:31:28.976Z,101270.31
2022-10-19T05:33:56.297Z,101267.81
2022-10-19T05:36:25.990Z,101278.19
2022-10-19T05:38:54.311Z,101271.91
2022-10-19T05:41:22.054Z,101277.13
2022-10-19T05:43:53.230Z,101278.56
2022-10-19T05:46:19.877Z,101284.13
2022-10-19T05:48:47.211Z,101276.50
2022-10-19T05:51:16.710Z,101280.22
2022-10-19T05:53:43.324Z,101274.13
2022-10-19T05:56:15.454Z,101273.22
2022-10-19T05:58:42.314Z,101282.91
2022-10-19T06:01:09.452Z,101281.31
2022-10-19T06:03:36.125Z,101281.19
2022-10-19T06:06:04.194Z,101287.25
2022-10-19T06:08:31.398Z,101281.31
2022-10-19T06:11:11.741Z,101279.25
2022-10-19T06:13:39.384Z,101277.50
2022-10-19T06:16:06.820Z,101278.41
2022-10-19T06:18:33.487Z,101284.25
2022-10-19T06:21:06.214Z,101275.59
2022-10-19T06:23:34.130Z,101272.03
2022-10-19T06:26:06.626Z,101280.75
2022-10-19T06:28:33.423Z,101285.97
2022-10-19T06:31:00.708Z,101287.66
2022-10-19T06:33:27.867Z,101283.22
2022-10-19T06:35:54.274Z,101285.69
2022-10-19T06:38:21.067Z,101284.91
2022-10-19T06:40:49.047Z,101286.69
2022-10-19T06:43:15.569Z,101286.69
2022-10-19T06:45:42.170Z,101288.28
2022-10-19T06:48:08.598Z,101291.41
2022-10-19T06:50:35.394Z,101285.13
2022-10-19T06:53:01.801Z,101292.84
2022-10-19T06:55:28.412Z,101297.94
2022-10-19T06:57:55.036Z,101296.78
2022-10-19T07:00:21.431Z,101286.84
2022-10-19T07:02:48.071Z,101289.16
2022-10-19T07:05:14.559Z,101287.22
2022-10-19T07:07:41.256Z,101294.84
2022-10-19T07:10:07.998Z,101290.16
2022-10-19T07:12:34.383Z,101289.09
2022-10-19T07:15:00.815Z,101290.19
2022-10-19T07:17:27.212Z,101297.13
2022-10-19T07:19:53.689Z,101285.03
2022-10-19T07:22:27.202Z,101282.75
2022-10-19T07:24:54.598Z,101285.09
2022-10-19T07:27:21.041Z,101282.88
2022-10-19T07:29:47.387Z,101288.47
2022-10-19T07:32:13.748Z,101280.53
2022-10-19T07:34:40.139Z,101282.59
2022-10-19T07:37:07.127Z,101290.47
2022-10-19T07:39:33.518Z,101291.38
2022-10-19T07:41:59.923Z,101290.38
2022-10-19T07:44:26.630Z,101293.69
2022-10-19T07:46:53.448Z,101298.16
2022-10-19T07:49:20.959Z,101302.50
2022-10-19T07:51:47.452Z,101301.03
2022-10-19T07:54:14.179Z,101301.84
2022-10-19T07:56:41.325Z,101306.09
2022-10-19T07:59:07.758Z,101306.34
2022-10-19T08:01:41.434Z,101308.03
2022-10-19T08:06:55.455Z,101327.66
2022-10-19T08:09:51.427Z,101337.13
2022-10-19T08:12:13.867Z,101329.28
2022-10-19T08:14:41.456Z,101333.59
2022-10-19T08:17:12.135Z,101335.78
2022-10-19T08:19:43.017Z,101324.53
2022-10-19T08:22:10.615Z,101321.41
2022-10-19T08:24:37.018Z,101323.81
2022-10-19T08:27:03.674Z,101313.84
2022-10-19T08:29:31.545Z,101319.97
2022-10-19T08:31:58.600Z,101309.63
2022-10-19T08:34:25.728Z,101298.41
2022-10-19T08:36:52.643Z,101302.50
2022-10-19T08:39:19.859Z,101304.44
2022-10-19T08:42:08.502Z,101296.81
2022-10-19T08:45:09.263Z,101298.06
2022-10-19T08:47:51.932Z,101284.50
2022-10-19T08:50:22.311Z,101278.72
2022-10-19T08:53:02.206Z,101274.78
2022-10-19T08:55:41.579Z,101277.75
2022-10-19T08:58:20.440Z,101281.16
2022-10-19T09:01:06.886Z,101281.94
2022-10-19T09:04:00.791Z,101288.69
2022-10-19T09:06:35.036Z,101278.75
2022-10-19T09:09:01.753Z,101288.38
2022-10-19T09:11:34.107Z,101285.16
2022-10-19T09:14:11.028Z,101289.84
2022-10-19T09:16:37.779Z,101294.00
2022-10-19T09:19:17.797Z,101291.00
2022-10-19T09:22:06.237Z,101291.13
2022-10-19T09:24:47.081Z,101295.38
2022-10-19T09:27:22.867Z,101298.53
2022-10-19T09:30:04.412Z,101291.88
2022-10-19T09:32:35.133Z,101291.41
2022-10-19T09:35:17.369Z,101289.06
2022-10-19T09:37:48.448Z,101288.16
2022-10-19T09:40:23.067Z,101288.91
2022-10-19T09:42:56.861Z,101292.22
2022-10-19T09:45:45.100Z,101281.03
2022-10-19T09:48:26.429Z,101277.69
2022-10-19T09:51:01.378Z,101267.13
2022-10-19T09:53:29.123Z,101265.03
2022-10-19T09:56:07.792Z,101267.41
2022-10-19T09:58:35.458Z,101262.03
2022-10-19T10:01:03.277Z,101264.72
2022-10-19T10:03:33.321Z,101269.63
2022-10-19T10:06:05.596Z,101274.56
2022-10-19T10:08:36.602Z,101264.19
2022-10-19T10:11:16.217Z,101259.41
2022-10-19T10:13:51.090Z,101254.78
2022-10-19T10:16:20.302Z,101260.84
2022-10-19T10:19:20.791Z,101257.97
2022-10-19T10:21:51.033Z,101252.22
2022-10-19T10:24:19.680Z,101261.38
2022-10-19T10:26:47.931Z,101248.09
2022-10-19T10:29:27.440Z,101254.81
2022-10-19T10:31:59.011Z,101251.41
2022-10-19T10:34:53.069Z,101256.06
2022-10-19T10:37:43.307Z,101254.78
2022-10-19T10:40:30.592Z,101259.44
2022-10-19T10:43:27.565Z,101250.53
2022-10-19T10:45:54.592Z,101251.47
2022-10-19T10:48:30.212Z,101237.97
2022-10-19T10:50:59.760Z,101236.53
2022-10-19T10:53:39.404Z,101239.09
2022-10-19T10:56:21.632Z,101234.81
2022-10-19T10:58:58.503Z,101236.06
2022-10-19T11:01:29.630Z,101232.91
2022-10-19T11:04:03.822Z,101233.34
2022-10-19T11:06:34.421Z,101221.47
2022-10-19T11:09:21.925Z,101216.78
2022-10-19T11:11:50.877Z,101217.19
2022-10-19T11:15:00.658Z,101212.88
2022-10-19T11:17:33.092Z,101212.31
2022-10-19T11:20:00.410Z,101206.66
2022-10-19T11:22:38.350Z,101202.78
2022-10-19T11:25:22.662Z,101193.41
2022-10-19T11:28:22.045Z,101191.44
2022-10-19T11:31:10.670Z,101187.13
2022-10-19T11:33:56.081Z,101179.88
2022-10-19T11:36:59.006Z,101176.72
2022-10-19T11:39:47.543Z,101169.44
2022-10-19T11:42:35.063Z,101165.00
2022-10-19T11:45:37.106Z,101159.31
2022-10-19T11:48:43.805Z,101149.78
2022-10-19T11:51:34.245Z,101148.75
2022-10-19T11:54:22.806Z,101142.78
2022-10-19T11:57:06.335Z,101135.69
2022-10-19T12:00:39.731Z,101135.47
2022-10-19T12:03:16.268Z,101132.38
2022-10-19T12:06:09.245Z,101123.50
2022-10-19T12:09:11.049Z,101123.69
2022-10-19T12:12:02.850Z,101112.88
2022-10-19T12:14:36.572Z,101111.97
2022-10-19T12:17:10.778Z,101111.03
2022-10-19T12:19:46.431Z,101116.34
2022-10-19T12:22:23.998Z,101115.69
2022-10-19T12:24:53.106Z,101114.59
2022-10-19T12:27:35.096Z,101115.75
2022-10-19T12:30:13.273Z,101116.13
2022-10-19T12:33:09.221Z,101119.72
2022-10-19T12:36:00.581Z,101112.63
2022-10-19T12:38:30.315Z,101118.31
2022-10-19T12:41:05.860Z,101113.88
2022-10-19T12:43:44.567Z,101111.97
2022-10-19T12:46:23.703Z,101103.19
2022-10-19T12:49:27.891Z,101100.53
2022-10-19T12:51:56.554Z,101095.00
2022-10-19T12:54:28.984Z,101088.84
2022-10-19T12:56:58.346Z,101094.44
2022-10-19T12:59:33.930Z,101088.47
2022-10-19T13:02:02.418Z,101083.06
2022-10-19T13:04:31.215Z,101078.81
2022-10-19T13:06:57.863Z,101086.94
2022-10-19T13:09:24.407Z,101077.38
2022-10-19T13:12:19.861Z,101070.69
2022-10-19T13:15:00.590Z,101064.81
2022-10-19T13:17:36.811Z,101066.63
2022-10-19T13:20:15.451Z,101051.94
2022-10-19T13:23:01.474Z,101059.25
2022-10-19T13:25:29.184Z,101047.91
2022-10-19T13:28:07.947Z,101036.06
2022-10-19T13:30:41.941Z,101035.97
2022-10-19T13:33:30.174Z,101036.28
2022-10-19T13:35:59.884Z,101036.97
2022-10-19T13:38:33.655Z,101034.03
2022-10-19T13:41:23.996Z,101024.13
2022-10-19T13:44:04.741Z,101029.19
2022-10-19T13:46:31.280Z,101022.47
2022-10-19T13:49:39.427Z,101024.16
2022-10-19T13:52:37.670Z,101025.97
2022-10-19T13:55:22.914Z,101030.78
2022-10-19T13:58:35.373Z,101025.81
2022-10-19T14:01:42.929Z,101014.69
2022-10-19T14:04:28.987Z,101023.75
2022-10-19T14:07:15.464Z,101021.44
2022-10-19T14:10:02.673Z,101027.81
2022-10-19T14:12:31.072Z,101029.03
2022-10-19T14:14:58.114Z,101016.44
2022-10-19T14:17:29.908Z,101018.44
2022-10-19T14:19:57.878Z,101020.84
2022-10-19T14:22:30.047Z,101028.06
2022-10-19T14:25:02.524Z,101017.09
2022-10-19T14:27:30.734Z,101019.97
2022-10-19T14:29:57.844Z,101014.19
2022-10-19T14:32:27.955Z,101016.97
2022-10-19T14:35:00.219Z,101012.38
2022-10-19T14:37:27.363Z,101013.63
2022-10-19T14:40:03.281Z,101004.22
2022-10-19T14:42:42.119Z,101006.28
2022-10-19T14:45:26.817Z,101000.66
2022-10-19T14:48:02.340Z,100999.78
2022-10-19T14:50:52.987Z,100995.31
2022-10-19T14:53:19.447Z,100999.91
2022-10-19T14:55:47.398Z,101003.94
2022-10-19T14:58:23.133Z,101001.38
2022-10-19T15:00:51.237Z,100998.19
2022-10-19T15:03:25.358Z,100991.47
2022-10-19T15:05:56.463Z,101001.91
2022-10-19T15:08:37.582Z,100999.84
2022-10-19T15:11:06.923Z,101001.38
2022-10-19T15:13:40.893Z,100993.34
2022-10-19T15:16:31.502Z,100979.63
2022-10-19T15:19:04.251Z,100983.13
2022-10-19T15:21:33.389Z,100977.03
2022-10-19T15:24:15.454Z,100975.66
2022-10-19T15:27:01.785Z,100973.31
2022-10-19T15:29:33.285Z,100966.56
2022-10-19T15:32:14.138Z,100973.81
2022-10-19T15:34:42.594Z,100963.59
2022-10-19T15:37:18.414Z,100963.28
2022-10-19T15:39:45.829Z,100958.63
2022-10-19T15:42:38.120Z,100957.78
2022-10-19T15:45:32.634Z,100958.16
2022-10-19T15:48:28.210Z,100952.81
2022-10-19T15:50:57.237Z,100943.72
2022-10-19T15:53:25.173Z,100943.72
2022-10-19T15:55:51.585Z,100930.53
2022-10-19T15:58:18.551Z,100936.56
2022-10-19T16:00:45.288Z,100929.78
2022-10-19T16:03:11.891Z,100928.56
2022-10-19T16:05:38.480Z,100924.13
2022-10-19T16:08:08.881Z,100918.84
2022-10-19T16:10:38.656Z,100924.97
2022-10-19T16:13:05.051Z,100913.34
2022-10-19T16:15:31.427Z,100917.03
2022-10-19T16:18:00.952Z,100916.47
2022-10-19T16:20:29.123Z,100921.81
2022-10-19T16:22:56.519Z,100918.44
2022-10-19T16:25:23.450Z,100920.00
2022-10-19T16:27:49.943Z,100917.94
2022-10-19T16:30:16.659Z,100922.56
2022-10-19T16:32:43.093Z,100924.75
2022-10-19T16:35:10.060Z,100927.50
2022-10-19T16:37:37.172Z,100925.81
2022-10-19T16:40:05.174Z,100940.22
2022-10-19T16:42:32.377Z,100937.66
2022-10-19T16:44:58.962Z,100936.03
2022-10-19T16:47:25.400Z,100921.03
2022-10-19T16:50:03.911Z,100934.78
2022-10-19T16:52:32.796Z,100939.44
2022-10-19T16:55:00.546Z,100940.94
2022-10-19T16:57:27.062Z,100929.53
2022-10-19T17:02:26.206Z,100930.53
2022-10-19T17:04:53.360Z,100925.66
2022-10-19T17:07:19.770Z,100931.13
2022-10-19T17:09:47.855Z,100938.47
2022-10-19T17:12:16.260Z,100943.56
2022-10-19T17:14:43.279Z,100937.41
2022-10-19T17:17:11.026Z,100936.28
2022-10-19T17:19:38.289Z,100934.44
2022-10-19T17:22:05.400Z,100927.53
2022-10-19T17:24:32.304Z,100931.94
2022-10-19T17:27:02.889Z,100922.66
2022-10-19T17:29:30.038Z,100931.41
2022-10-19T17:31:57.201Z,100925.44
2022-10-19T17:34:23.813Z,100917.41
2022-10-19T17:36:50.551Z,100918.47
2022-10-19T17:39:25.601Z,100918.34
2022-10-19T17:42:01.826Z,100925.75
2022-10-19T17:44:30.739Z,100924.44
2022-10-19T17:46:57.483Z,100931.41
2022-10-19T17:49:24.123Z,100928.91
2022-10-19T17:51:51.936Z,100930.09
2022-10-19T17:54:18.372Z,100926.47
2022-10-19T17:56:45.431Z,100926.94
2022-10-19T17:59:12.674Z,100927.16
2022-10-19T18:01:39.335Z,100929.19
2022-10-19T18:04:06.433Z,100926.38
2022-10-19T18:06:35.770Z,100929.94
2022-10-19T18:09:06.083Z,100937.94
2022-10-19T18:11:37.366Z,100942.91
2022-10-19T18:14:04.839Z,100943.69
2022-10-19T18:16:37.580Z,100944.69
2022-10-19T18:19:04.800Z,100945.31
2022-10-19T18:21:34.690Z,100946.03
2022-10-19T18:24:02.486Z,100946.88
2022-10-19T18:26:32.294Z,100948.88
2022-10-19T18:29:00.581Z,100949.56
2022-10-19T18:31:29.396Z,100938.22
2022-10-19T18:34:04.218Z,100948.22
2022-10-19T18:36:32.121Z,100938.84
2022-10-19T18:39:01.562Z,100931.75
2022-10-19T18:41:29.781Z,100928.47
2022-10-19T18:44:03.099Z,100921.59
2022-10-19T18:46:30.044Z,100911.75
2022-10-19T18:48:56.832Z,100911.22
2022-10-19T18:51:23.692Z,100911.38
2022-10-19T18:53:50.551Z,100907.19
2022-10-19T18:56:20.615Z,100899.78
2022-10-19T18:58:48.336Z,100904.28
2022-10-19T19:01:18.029Z,100904.88
2022-10-19T19:03:47.011Z,100903.13
2022-10-19T19:06:17.198Z,100898.53
2022-10-19T19:11:20.480Z,100895.78
2022-10-19T19:13:55.639Z,100908.13
2022-10-19T19:16:23.374Z,100902.81
2022-10-19T19:18:50.384Z,100900.69
2022-10-19T19:21:21.361Z,100900.25
2022-10-19T19:23:49.479Z,100898.78
2022-10-19T19:26:17.318Z,100894.88
2022-10-19T19:28:46.368Z,100897.34
2022-10-19T19:31:15.928Z,100886.59
2022-10-19T19:33:44.147Z,100881.53
2022-10-19T19:36:13.076Z,100892.16
2022-10-19T19:38:39.489Z,100894.47
2022-10-19T19:41:07.704Z,100891.16
2022-10-19T19:43:37.170Z,100899.22
2022-10-19T19:46:12.374Z,100880.09
2022-10-19T19:48:40.240Z,100868.19
2022-10-19T19:51:12.700Z,100866.44
2022-10-19T19:53:40.404Z,100874.59
2022-10-19T19:56:09.039Z,100871.97
2022-10-19T19:58:36.073Z,100864.91
2022-10-19T20:01:17.454Z,100859.66
2022-10-19T20:03:45.702Z,100853.44
2022-10-19T20:06:14.185Z,100850.88
2022-10-19T20:08:40.623Z,100853.50
2022-10-19T20:11:10.874Z,100852.09
2022-10-19T20:13:38.120Z,100856.03
2022-10-19T20:16:13.616Z,100844.75
2022-10-19T20:18:41.119Z,100841.78
2022-10-19T20:21:07.610Z,100849.75
2022-10-19T20:23:34.476Z,100850.97
2022-10-19T20:26:01.371Z,100855.31
2022-10-19T20:28:28.443Z,100857.97
2022-10-19T20:31:09.079Z,100850.06
2022-10-19T20:33:37.389Z,100849.28
2022-10-19T20:36:09.947Z,100853.06
2022-10-19T20:38:38.513Z,100853.88
2022-10-19T20:41:08.054Z,100858.16
2022-10-19T20:43:37.068Z,100849.53
2022-10-19T20:46:20.960Z,100855.97
2022-10-19T20:48:48.423Z,100856.66
2022-10-19T20:51:17.447Z,100847.16
2022-10-19T20:53:46.330Z,100842.09
2022-10-19T20:56:15.046Z,100844.09
2022-10-19T20:58:43.647Z,100847.78
2022-10-19T21:01:13.997Z,100847.09
2022-10-19T21:03:46.252Z,100842.72
2022-10-19T21:06:12.960Z,100851.47
2022-10-19T21:08:39.556Z,100843.69
2022-10-19T21:11:17.338Z,100849.25
2022-10-19T21:13:44.765Z,100853.91
2022-10-19T21:16:16.112Z,100857.47
2022-10-19T21:18:44.359Z,100856.84
2022-10-19T21:21:18.887Z,100852.59
2022-10-19T21:23:47.929Z,100852.91
2022-10-19T21:26:14.448Z,100855.19
2022-10-19T21:28:46.223Z,100854.13
2022-10-19T21:31:12.667Z,100850.66
2022-10-19T21:33:39.213Z,100845.47
2022-10-19T21:36:07.049Z,100838.59
2022-10-19T21:38:34.273Z,100838.06
2022-10-19T21:41:05.385Z,100842.28
2022-10-19T21:43:32.202Z,100842.47
2022-10-19T21:46:05.541Z,100843.41
2022-10-19T21:48:33.581Z,100842.66
2022-10-19T21:51:00.639Z,100831.22
2022-10-19T21:53:27.048Z,100827.81
2022-10-19T21:55:53.842Z,100823.38
2022-10-19T21:58:22.135Z,100822.56
2022-10-19T22:00:49.158Z,100820.03
2022-10-19T22:03:18.945Z,100822.78
2022-10-19T22:05:52.513Z,100811.38
2022-10-19T22:08:18.891Z,100808.03
2022-10-19T22:10:45.278Z,100810.72
2022-10-19T22:13:11.825Z,100807.25
2022-10-19T22:15:39.798Z,100800.19
2022-10-19T22:18:06.439Z,100798.41
2022-10-19T22:20:36.109Z,100800.00
2022-10-19T22:23:03.698Z,100800.75
2022-10-19T22:25:30.887Z,100788.41
2022-10-19T22:27:57.407Z,100792.00
2022-10-19T22:30:24.078Z,100790.06
2022-10-19T22:32:50.463Z,100786.66
2022-10-19T22:35:17.353Z,100788.53
2022-10-19T22:37:43.912Z,100775.47
2022-10-19T22:40:10.820Z,100780.53
2022-10-19T22:42:37.588Z,100775.34
2022-10-19T22:45:04.875Z,100772.72
2022-10-19T22:47:31.245Z,100766.75
2022-10-19T22:49:57.605Z,100769.25
2022-10-19T22:52:26.668Z,100769.16
2022-10-19T22:54:53.563Z,100762.38
2022-10-19T22:57:19.924Z,100741.34
2022-10-19T22:59:46.740Z,100743.28
2022-10-19T23:02:13.323Z,100744.25
2022-10-19T23:04:39.715Z,100744.38
2022-10-19T23:07:06.113Z,100739.00
2022-10-19T23:09:32.716Z,100725.66
2022-10-19T23:11:59.084Z,100722.91
2022-10-19T23:14:25.595Z,100719.63
2022-10-19T23:16:52.014Z,100716.22
2022-10-19T23:19:18.601Z,100715.44
2022-10-19T23:21:44.987Z,100711.84
2022-10-19T23:24:11.347Z,100712.66
2022-10-19T23:26:37.856Z,100715.44
2022-10-19T23:29:04.260Z,100704.91
2022-10-19T23:31:30.986Z,100700.91
2022-10-19T23:33:57.406Z,100694.28
2022-10-19T23:36:27.099Z,100701.97
2022-10-19T23:38:56.426Z,100696.97
2022-10-19T23:41:23.349Z,100693.31
2022-10-19T23:43:49.984Z,100685.16
2022-10-19T23:46:16.346Z,100684.56
2022-10-19T23:48:43.024Z,100682.91
2022-10-19T23:51:12.988Z,100680.84
2022-10-19T23:53:41.674Z,100672.25
2022-10-19T23:56:20.270Z,100670.06
2022-10-19T23:58:47.745Z,100676.38
